Time;durP1;ratioP1;P1;durP2;ratioP2;P2;SDS_P1;SDS_P2;PMS_P1;PMS_P2;Temp;Humidity;BMP_temperature;BMP_pressure;BME280_temperature;BME280_humidity;BME280_pressure;Samples;Min_cycle;Max_cycle;Signal;HPM_P1;HPM_P2
2022/05/31 00:00:14;;;;;;;8.32;4.07;;;11.00;99.90;;;;;;5054644;28;20401;-47
2022/05/31 00:02:40;;;;;;;7.20;4.13;;;11.00;99.90;;;;;;5054600;28;20021;-53
2022/05/31 00:05:09;;;;;;;6.57;3.95;;;10.90;99.90;;;;;;5055075;28;20439;-49
2022/05/31 00:07:36;;;;;;;8.95;4.80;;;10.90;99.90;;;;;;5055141;28;20064;-48
2022/05/31 00:10:01;;;;;;;8.32;4.25;;;10.90;99.90;;;;;;5054918;28;20033;-47
2022/05/31 00:12:27;;;;;;;9.77;4.43;;;10.90;99.90;;;;;;5054719;28;20032;-47
2022/05/31 00:14:52;;;;;;;7.15;4.40;;;10.80;99.90;;;;;;5054300;28;20021;-49
2022/05/31 00:17:18;;;;;;;8.30;3.78;;;10.80;99.90;;;;;;5054568;28;20372;-48
2022/05/31 00:19:44;;;;;;;8.45;4.38;;;10.80;99.90;;;;;;5054234;28;20021;-50
2022/05/31 00:22:17;;;;;;;8.35;4.32;;;10.80;99.90;;;;;;5053650;28;20099;-49
2022/05/31 00:24:43;;;;;;;6.78;4.18;;;10.80;99.90;;;;;;5054362;28;20024;-47
2022/05/31 00:27:10;;;;;;;8.15;4.60;;;10.80;99.90;;;;;;5054044;28;20065;-49
2022/05/31 00:29:36;;;;;;;11.10;4.45;;;10.80;99.90;;;;;;5053851;28;20033;-48
2022/05/31 00:32:06;;;;;;;7.05;4.60;;;10.70;99.90;;;;;;5054086;28;20098;-47
2022/05/31 00:34:33;;;;;;;7.55;5.07;;;10.70;99.90;;;;;;5053968;28;20104;-51
2022/05/31 00:36:59;;;;;;;11.82;5.10;;;10.70;99.90;;;;;;5054052;28;20083;-51
2022/05/31 00:39:25;;;;;;;7.43;4.55;;;10.70;99.90;;;;;;5053960;28;20401;-51
2022/05/31 00:42:04;;;;;;;9.43;4.75;;;10.70;99.90;;;;;;5053354;28;20090;-47
2022/05/31 00:44:32;;;;;;;5.13;4.38;;;10.70;99.90;;;;;;5053457;28;20037;-47
2022/05/31 00:47:03;;;;;;;7.95;4.70;;;10.70;99.90;;;;;;5053396;28;20436;-49
2022/05/31 00:49:36;;;;;;;8.32;4.90;;;10.60;99.90;;;;;;5053567;28;20149;-48
2022/05/31 00:52:09;;;;;;;7.57;4.82;;;10.60;99.90;;;;;;5053329;28;20082;-47
2022/05/31 00:54:38;;;;;;;6.75;4.88;;;10.70;99.90;;;;;;5053531;28;20071;-47
2022/05/31 00:57:04;;;;;;;6.68;4.43;;;10.70;99.90;;;;;;5052557;28;20397;-47
2022/05/31 00:59:46;;;;;;;9.55;4.65;;;10.60;99.90;;;;;;5053043;28;20021;-47
2022/05/31 01:02:12;;;;;;;7.35;4.60;;;10.70;99.90;;;;;;5053500;28;20036;-48
2022/05/31 01:04:45;;;;;;;7.70;5.15;;;10.60;99.90;;;;;;5053782;28;20017;-47
2022/05/31 01:07:10;;;;;;;8.90;4.40;;;10.60;99.90;;;;;;5053547;28;20493;-48
2022/05/31 01:09:37;;;;;;;6.50;4.80;;;10.60;99.90;;;;;;5052976;28;20100;-47
2022/05/31 01:12:04;;;;;;;6.80;5.13;;;10.60;99.90;;;;;;5052615;28;20179;-47
2022/05/31 01:14:31;;;;;;;10.93;5.28;;;10.50;99.90;;;;;;5053184;28;20025;-47
2022/05/31 01:17:03;;;;;;;7.85;5.32;;;10.50;99.90;;;;;;5052724;28;20025;-48
2022/05/31 01:22:16;;;;;;;8.32;5.30;;;10.50;99.90;;;;;;5053278;28;20039;-49
2022/05/31 01:24:53;;;;;;;8.65;5.75;;;10.50;99.90;;;;;;5034986;28;20482;-48
2022/05/31 01:27:43;;;;;;;6.40;5.20;;;10.50;99.90;;;;;;5053203;28;20032;-47
2022/05/31 01:30:10;;;;;;;9.27;6.03;;;10.60;99.90;;;;;;5052819;28;20049;-49
2022/05/31 01:32:41;;;;;;;9.77;5.75;;;10.60;99.90;;;;;;5034755;28;20263;-48
2022/05/31 01:35:21;;;;;;;8.00;4.93;;;10.60;99.90;;;;;;5052815;28;20032;-51
2022/05/31 01:37:57;;;;;;;8.00;5.70;;;10.60;99.90;;;;;;5052838;28;20032;-50
2022/05/31 01:40:58;;;;;;;7.88;4.70;;;10.60;99.90;;;;;;5052951;28;20053;-50
2022/05/31 01:43:23;;;;;;;10.18;5.05;;;10.60;99.90;;;;;;5052998;28;20028;-47
2022/05/31 01:46:05;;;;;;;6.47;4.80;;;10.60;99.90;;;;;;5052630;28;20033;-48
2022/05/31 01:48:34;;;;;;;8.55;5.80;;;10.70;99.90;;;;;;5034892;28;20339;-49
2022/05/31 01:51:01;;;;;;;9.95;5.05;;;10.70;99.90;;;;;;5052369;28;20377;-47
2022/05/31 01:53:27;;;;;;;6.47;4.68;;;10.70;99.90;;;;;;5052469;28;20125;-51
2022/05/31 01:55:53;;;;;;;6.28;4.80;;;10.70;99.90;;;;;;5053471;28;20018;-53
2022/05/31 01:58:23;;;;;;;7.93;5.97;;;10.70;99.90;;;;;;5053773;28;20036;-50
2022/05/31 02:00:50;;;;;;;6.53;4.63;;;10.70;99.90;;;;;;5049141;28;20386;-46
2022/05/31 02:03:18;;;;;;;7.43;4.60;;;10.60;99.90;;;;;;5035207;28;20024;-48
2022/05/31 02:05:46;;;;;;;8.48;4.80;;;10.50;99.90;;;;;;5051202;28;20033;-51
2022/05/31 02:08:13;;;;;;;11.82;5.15;;;10.50;99.90;;;;;;5053179;28;20087;-51
2022/05/31 02:10:40;;;;;;;10.43;5.70;;;10.60;99.90;;;;;;5056180;28;20111;-46
2022/05/31 02:13:06;;;;;;;6.35;5.18;;;10.60;99.90;;;;;;5056284;28;20033;-48
2022/05/31 02:15:32;;;;;;;8.95;4.50;;;10.60;99.90;;;;;;5056090;28;20029;-46
2022/05/31 02:17:57;;;;;;;8.07;4.95;;;10.60;99.90;;;;;;5056185;28;20032;-48
2022/05/31 02:20:23;;;;;;;8.52;4.88;;;10.60;99.90;;;;;;5038087;28;20025;-48
2022/05/31 02:22:48;;;;;;;6.53;5.00;;;10.70;99.90;;;;;;5056128;28;20462;-48
2022/05/31 02:25:14;;;;;;;8.77;5.88;;;10.70;99.90;;;;;;5056039;28;20040;-47
2022/05/31 02:27:39;;;;;;;9.15;5.10;;;10.70;99.90;;;;;;5056208;28;20028;-46
2022/05/31 02:30:06;;;;;;;8.93;4.90;;;10.60;99.90;;;;;;5056178;28;20033;-48
2022/05/31 02:32:32;;;;;;;8.40;5.18;;;10.60;99.90;;;;;;5037707;28;20053;-47
2022/05/31 02:34:58;;;;;;;7.57;4.80;;;10.60;99.90;;;;;;5055773;28;20025;-49
2022/05/31 02:37:24;;;;;;;12.35;6.25;;;10.70;99.90;;;;;;5055621;28;20040;-46
2022/05/31 02:39:49;;;;;;;10.52;5.72;;;10.70;99.90;;;;;;5055574;28;20025;-51
2022/05/31 02:42:15;;;;;;;9.38;6.63;;;10.80;99.90;;;;;;5055801;28;20052;-47
2022/05/31 02:44:41;;;;;;;9.23;6.18;;;10.80;99.90;;;;;;5055430;28;20029;-49
2022/05/31 02:47:08;;;;;;;8.93;5.93;;;10.60;99.90;;;;;;5055804;28;20108;-47
2022/05/31 02:49:35;;;;;;;8.70;5.72;;;10.60;99.90;;;;;;5055536;28;20021;-46
2022/05/31 02:52:01;;;;;;;7.97;6.15;;;10.60;99.90;;;;;;5055598;28;20100;-47
2022/05/31 02:54:27;;;;;;;8.20;6.13;;;10.50;99.90;;;;;;5055751;28;20434;-46
2022/05/31 02:56:53;;;;;;;11.80;6.55;;;10.40;99.90;;;;;;5055853;28;20022;-46
2022/05/31 02:59:18;;;;;;;8.27;6.75;;;10.40;99.90;;;;;;5055571;28;20025;-49
2022/05/31 03:01:44;;;;;;;13.13;6.72;;;10.30;99.90;;;;;;5055493;28;20021;-47
2022/05/31 03:04:12;;;;;;;8.50;5.80;;;10.30;99.90;;;;;;5055239;28;20070;-49
2022/05/31 03:06:38;;;;;;;9.63;5.72;;;10.30;99.90;;;;;;5055249;28;20025;-51
2022/05/31 03:09:05;;;;;;;9.38;6.38;;;10.30;99.90;;;;;;5055440;28;20036;-47
2022/05/31 03:11:38;;;;;;;15.48;6.50;;;10.30;99.90;;;;;;5055480;28;20053;-47
2022/05/31 03:14:30;;;;;;;9.98;6.50;;;10.30;99.90;;;;;;5037802;28;20462;-50
2022/05/31 03:17:25;;;;;;;9.35;6.10;;;10.40;99.90;;;;;;5017916;28;20047;-48
2022/05/31 03:19:58;;;;;;;10.88;6.63;;;10.40;99.90;;;;;;5054752;28;20029;-47
2022/05/31 03:22:27;;;;;;;11.85;7.20;;;10.50;99.90;;;;;;5055063;28;20047;-48
2022/05/31 03:25:01;;;;;;;12.18;7.30;;;10.50;99.90;;;;;;5055225;28;20029;-46
2022/05/31 03:27:27;;;;;;;9.13;6.25;;;10.50;99.90;;;;;;5055168;28;20029;-50
2022/05/31 03:29:53;;;;;;;9.95;6.30;;;10.50;99.90;;;;;;5054869;28;20033;-47
2022/05/31 03:32:20;;;;;;;12.13;6.78;;;10.50;99.90;;;;;;5054692;28;20024;-48
2022/05/31 03:34:46;;;;;;;10.10;7.75;;;10.50;99.90;;;;;;5054668;28;20021;-48
2022/05/31 03:37:12;;;;;;;10.52;6.70;;;10.50;99.90;;;;;;5054894;28;20032;-50
2022/05/31 03:39:38;;;;;;;10.68;7.15;;;10.50;99.90;;;;;;5054946;28;20091;-48
2022/05/31 03:42:06;;;;;;;12.93;7.18;;;10.60;99.90;;;;;;5054944;28;20437;-50
2022/05/31 03:44:32;;;;;;;8.63;6.18;;;10.60;99.90;;;;;;5087313;22;20037;-72
2022/05/31 03:46:57;;;;;;;10.23;6.80;;;10.60;99.90;;;;;;5063725;28;20048;-71
2022/05/31 03:49:23;;;;;;;11.00;6.88;;;10.60;99.90;;;;;;5057502;28;20100;-72
2022/05/31 03:51:49;;;;;;;10.80;7.13;;;10.60;99.90;;;;;;5056742;28;20392;-72
2022/05/31 03:54:14;;;;;;;14.38;7.90;;;10.60;99.90;;;;;;5057352;28;20037;-72
2022/05/31 03:56:40;;;;;;;10.38;6.53;;;10.60;99.90;;;;;;5056736;28;20079;-72
2022/05/31 03:59:05;;;;;;;10.52;7.10;;;10.60;99.90;;;;;;5039279;28;20024;-72
2022/05/31 04:01:31;;;;;;;9.93;7.13;;;10.60;99.90;;;;;;5056849;28;20478;-72
2022/05/31 04:03:56;;;;;;;10.82;7.47;;;10.60;99.90;;;;;;5056246;28;20071;-72
2022/05/31 04:06:22;;;;;;;12.20;7.95;;;10.60;99.90;;;;;;5038780;28;20056;-73
2022/05/31 04:08:49;;;;;;;10.30;6.78;;;10.60;99.90;;;;;;5038161;28;20032;-72
2022/05/31 04:11:14;;;;;;;13.45;7.97;;;10.70;99.90;;;;;;5056198;28;20021;-72
2022/05/31 04:13:40;;;;;;;12.48;7.85;;;10.70;99.90;;;;;;5056177;28;20107;-72
2022/05/31 04:16:12;;;;;;;15.18;8.30;;;10.70;99.90;;;;;;5056091;28;20025;-72
2022/05/31 04:18:39;;;;;;;13.15;8.48;;;10.70;99.90;;;;;;5056275;28;20094;-72
2022/05/31 04:21:08;;;;;;;11.23;7.47;;;10.70;99.90;;;;;;5055972;28;20032;-72
2022/05/31 04:26:17;;;;;;;12.18;7.78;;;10.70;99.90;;;;;;5056091;28;20063;-72
2022/05/31 04:28:43;;;;;;;11.30;8.30;;;10.80;99.90;;;;;;5037842;28;20490;-72
2022/05/31 04:31:09;;;;;;;13.30;7.13;;;10.80;99.90;;;;;;5056293;28;20024;-72
2022/05/31 04:33:35;;;;;;;9.15;6.75;;;10.80;99.90;;;;;;5055591;28;20383;-73
2022/05/31 04:36:06;;;;;;;10.77;7.65;;;10.80;99.90;;;;;;5056119;28;20021;-72
2022/05/31 04:38:33;;;;;;;12.70;7.22;;;10.90;99.90;;;;;;5038293;28;20459;-72
2022/05/31 04:40:59;;;;;;;11.60;8.05;;;11.00;99.90;;;;;;5057264;28;20025;-71
2022/05/31 04:43:25;;;;;;;14.20;8.40;;;11.00;99.90;;;;;;5057645;28;20090;-72
2022/05/31 04:45:50;;;;;;;12.52;7.97;;;11.00;99.90;;;;;;5058053;28;20033;-72
2022/05/31 04:48:16;;;;;;;12.80;7.93;;;11.10;99.90;;;;;;5064662;28;20048;-72
2022/05/31 04:50:42;;;;;;;12.48;8.05;;;11.10;99.90;;;;;;5044144;28;20025;-72
2022/05/31 04:53:08;;;;;;;10.52;7.40;;;11.20;99.90;;;;;;5056453;28;20080;-73
2022/05/31 04:55:33;;;;;;;13.00;8.48;;;11.30;99.90;;;;;;5037373;28;20035;-73
2022/05/31 04:57:59;;;;;;;14.35;8.02;;;11.40;99.90;;;;;;5055359;28;20036;-72
2022/05/31 05:00:25;;;;;;;13.18;7.88;;;11.40;99.90;;;;;;5056788;28;20429;-71
2022/05/31 05:02:50;;;;;;;15.18;7.85;;;11.50;99.90;;;;;;5055982;28;20075;-72
2022/05/31 05:05:16;;;;;;;13.70;7.30;;;11.50;99.90;;;;;;5039487;28;20082;-72
2022/05/31 05:07:42;;;;;;;13.25;8.45;;;11.60;99.90;;;;;;5058759;28;20029;-72
2022/05/31 05:10:08;;;;;;;12.68;8.45;;;11.60;99.90;;;;;;5057639;28;20039;-73
2022/05/31 05:12:34;;;;;;;12.20;7.78;;;11.70;99.90;;;;;;5056356;28;20043;-72
2022/05/31 05:15:00;;;;;;;9.70;7.68;;;11.70;99.90;;;;;;5057717;28;20033;-73
2022/05/31 05:17:26;;;;;;;11.95;7.68;;;11.70;99.90;;;;;;5056300;28;20099;-72
2022/05/31 05:19:52;;;;;;;16.08;8.52;;;11.70;99.90;;;;;;5058061;28;20021;-72
2022/05/31 05:22:17;;;;;;;13.32;8.02;;;11.70;99.90;;;;;;5057173;28;20033;-71
2022/05/31 05:24:43;;;;;;;13.25;7.72;;;11.80;99.90;;;;;;5057382;28;20033;-73
2022/05/31 05:27:08;;;;;;;10.98;7.22;;;11.80;99.90;;;;;;5055978;28;20048;-73
2022/05/31 05:32:18;;;;;;;14.35;7.38;;;12.00;99.90;;;;;;5055234;28;20064;-73
2022/05/31 05:34:47;;;;;;;8.68;6.32;;;12.20;99.90;;;;;;5055751;28;20037;-74
2022/05/31 05:37:13;;;;;;;12.48;6.40;;;12.40;99.90;;;;;;5055763;28;20397;-73
2022/05/31 05:39:39;;;;;;;7.30;5.80;;;12.40;99.90;;;;;;5055743;28;20100;-73
2022/05/31 05:42:04;;;;;;;9.55;6.40;;;12.50;99.90;;;;;;5055509;28;20017;-73
2022/05/31 05:44:30;;;;;;;8.32;6.47;;;12.50;99.90;;;;;;5055748;28;20477;-73
2022/05/31 05:46:55;;;;;;;15.25;6.18;;;12.50;99.90;;;;;;5056365;28;20027;-73
2022/05/31 05:49:21;;;;;;;13.05;6.30;;;12.50;99.90;;;;;;5056474;28;20029;-73
2022/05/31 05:51:48;;;;;;;11.80;6.30;;;12.40;99.90;;;;;;5058084;28;20029;-73
2022/05/31 05:54:14;;;;;;;9.38;6.05;;;12.40;99.90;;;;;;5058948;28;20045;-73
2022/05/31 05:56:39;;;;;;;5.80;5.07;;;12.40;99.90;;;;;;5058385;28;20039;-72
2022/05/31 05:59:06;;;;;;;8.90;5.60;;;12.50;99.90;;;;;;5037793;28;20025;-73
2022/05/31 06:01:36;;;;;;;8.48;5.97;;;12.60;99.90;;;;;;5056000;28;20074;-73
2022/05/31 06:04:24;;;;;;;8.35;5.38;;;12.60;99.90;;;;;;5055332;28;20510;-72
2022/05/31 06:07:00;;;;;;;11.35;5.60;;;12.80;99.90;;;;;;5056480;28;20540;-73
2022/05/31 06:09:27;;;;;;;8.85;5.57;;;12.90;99.90;;;;;;5055027;28;20365;-73
2022/05/31 06:12:05;;;;;;;9.25;5.25;;;13.00;99.90;;;;;;5054750;28;20087;-73
2022/05/31 06:14:41;;;;;;;9.60;5.57;;;13.10;99.90;;;;;;5054718;28;20480;-73
2022/05/31 06:17:14;;;;;;;7.03;4.72;;;13.20;99.90;;;;;;5055028;28;20623;-72
2022/05/31 06:19:40;;;;;;;10.75;4.38;;;13.30;99.90;;;;;;5054760;28;20053;-73
2022/05/31 06:22:07;;;;;;;6.70;4.32;;;13.40;99.90;;;;;;5054476;28;20024;-73
2022/05/31 06:24:34;;;;;;;6.88;4.63;;;13.50;99.90;;;;;;5054543;28;20394;-73
2022/05/31 06:27:00;;;;;;;7.70;4.35;;;13.70;99.90;;;;;;5054632;28;20107;-72
2022/05/31 06:29:29;;;;;;;9.55;5.32;;;13.70;99.90;;;;;;5055079;28;20135;-72
2022/05/31 06:31:55;;;;;;;5.57;4.10;;;13.80;99.90;;;;;;5054043;28;20064;-73
2022/05/31 06:34:22;;;;;;;7.15;4.60;;;13.80;99.90;;;;;;5054121;28;20052;-72
2022/05/31 06:36:49;;;;;;;7.25;4.65;;;13.70;99.90;;;;;;5054339;28;20552;-73
2022/05/31 06:39:14;;;;;;;12.02;4.63;;;13.70;99.90;;;;;;5054113;28;20033;-73
2022/05/31 06:41:40;;;;;;;6.15;4.50;;;13.70;99.90;;;;;;5054767;28;20390;-72
2022/05/31 06:44:05;;;;;;;6.05;5.00;;;13.70;99.90;;;;;;5054557;28;20021;-72
2022/05/31 06:46:31;;;;;;;8.07;4.63;;;13.70;99.90;;;;;;5036941;28;20022;-73
2022/05/31 06:48:59;;;;;;;7.93;5.05;;;13.70;99.90;;;;;;5054411;28;20538;-73
2022/05/31 06:56:57;;;;;;;7.15;5.15;;;13.80;99.90;;;;;;5057400;28;20082;-72
2022/05/31 06:59:23;;;;;;;6.28;4.47;;;13.80;99.90;;;;;;5040853;28;20028;-72
2022/05/31 07:01:48;;;;;;;8.82;4.50;;;13.90;99.90;;;;;;5059100;28;20028;-73
2022/05/31 07:04:14;;;;;;;7.65;4.35;;;14.10;99.90;;;;;;5041115;28;20025;-72
2022/05/31 07:06:40;;;;;;;6.50;4.03;;;14.10;99.90;;;;;;5060774;28;20465;-72
2022/05/31 07:09:06;;;;;;;5.57;4.10;;;14.20;99.90;;;;;;5060188;28;20028;-73
2022/05/31 07:11:31;;;;;;;9.70;4.25;;;14.30;99.90;;;;;;5042371;28;20108;-72
2022/05/31 07:13:57;;;;;;;9.57;4.80;;;14.40;99.90;;;;;;5061015;28;20069;-72
2022/05/31 07:16:23;;;;;;;7.88;4.50;;;14.50;99.90;;;;;;5060366;28;20021;-72
2022/05/31 07:18:49;;;;;;;6.78;4.80;;;14.60;99.90;;;;;;5061410;28;20371;-72
2022/05/31 07:21:14;;;;;;;8.00;4.55;;;14.70;99.90;;;;;;5055973;28;20040;-72
2022/05/31 07:23:40;;;;;;;5.72;3.72;;;14.80;99.90;;;;;;5039686;28;20029;-72
2022/05/31 07:26:07;;;;;;;11.02;5.15;;;14.90;99.90;;;;;;5039665;28;20049;-72
2022/05/31 07:28:32;;;;;;;7.75;4.43;;;15.00;99.90;;;;;;5057219;28;20029;-73
2022/05/31 07:30:59;;;;;;;8.52;4.20;;;15.10;99.90;;;;;;5057707;28;20032;-72
2022/05/31 07:33:24;;;;;;;13.25;5.20;;;15.20;99.90;;;;;;5057834;28;20021;-72
2022/05/31 07:35:50;;;;;;;12.35;5.43;;;15.30;99.90;;;;;;5057916;28;20385;-74
2022/05/31 07:38:20;;;;;;;6.97;4.15;;;15.50;99.90;;;;;;5057381;28;20448;-72
2022/05/31 07:40:49;;;;;;;7.75;3.92;;;15.60;99.90;;;;;;5057177;28;20450;-73
2022/05/31 07:43:15;;;;;;;6.38;3.10;;;15.70;99.90;;;;;;5057414;28;20029;-73
2022/05/31 07:45:41;;;;;;;7.07;2.47;;;15.80;99.90;;;;;;5057052;28;20433;-73
2022/05/31 07:48:07;;;;;;;7.55;3.63;;;16.00;99.90;;;;;;5057537;28;20032;-73
2022/05/31 07:50:33;;;;;;;4.30;3.92;;;16.20;99.90;;;;;;5057783;28;20049;-73
2022/05/31 07:52:59;;;;;;;5.75;3.97;;;16.20;99.90;;;;;;5056714;28;20056;-73
2022/05/31 07:55:25;;;;;;;6.05;3.78;;;16.40;99.90;;;;;;5057013;28;20024;-73
2022/05/31 08:00:36;;;;;;;9.52;3.72;;;16.60;99.90;;;;;;5056371;28;20382;-72
2022/05/31 08:03:02;;;;;;;8.30;3.75;;;16.90;99.90;;;;;;5056215;28;20025;-72
2022/05/31 08:05:29;;;;;;;8.20;4.40;;;16.90;99.90;;;;;;5056144;28;20028;-72
2022/05/31 08:07:54;;;;;;;7.78;3.83;;;17.00;99.90;;;;;;5055701;28;20017;-72
2022/05/31 08:10:20;;;;;;;9.75;3.47;;;16.90;99.90;;;;;;5055826;28;20033;-73
2022/05/31 08:12:46;;;;;;;5.28;2.90;;;16.90;99.90;;;;;;5055827;28;20017;-71
2022/05/31 08:15:11;;;;;;;7.72;4.38;;;17.00;99.90;;;;;;5037544;28;20067;-71
2022/05/31 08:17:37;;;;;;;5.40;3.35;;;17.10;99.90;;;;;;5055809;28;20037;-72
2022/05/31 08:20:07;;;;;;;6.57;4.38;;;17.00;99.90;;;;;;5056149;28;20055;-72
2022/05/31 08:22:34;;;;;;;5.78;4.18;;;16.90;99.90;;;;;;5055683;28;20058;-72
2022/05/31 08:25:00;;;;;;;6.82;4.22;;;16.90;99.90;;;;;;5055001;28;20379;-72
2022/05/31 08:27:26;;;;;;;7.40;4.63;;;16.90;99.90;;;;;;5055195;28;20029;-72
2022/05/31 08:29:51;;;;;;;5.35;4.25;;;16.90;99.90;;;;;;5054825;28;20024;-72
2022/05/31 08:32:17;;;;;;;11.65;4.57;;;16.90;99.90;;;;;;5055777;28;20040;-72
2022/05/31 08:34:43;;;;;;;9.10;3.83;;;16.80;99.90;;;;;;5055340;28;20098;-71
2022/05/31 08:37:09;;;;;;;4.93;3.72;;;16.70;99.90;;;;;;5055624;28;20470;-71
2022/05/31 08:39:34;;;;;;;6.95;4.55;;;16.70;99.90;;;;;;5055680;28;20072;-72
2022/05/31 08:42:09;;;;;;;5.75;3.88;;;16.90;99.90;;;;;;5055734;28;20490;-72
2022/05/31 08:45:00;;;;;;;5.93;3.63;;;17.00;99.90;;;;;;5055853;28;20520;-72
2022/05/31 08:47:31;;;;;;;7.20;3.85;;;17.10;99.90;;;;;;5020171;28;20132;-72
2022/05/31 08:52:58;;;;;;;5.10;3.47;;;17.10;99.90;;;;;;5057728;28;20044;-72
2022/05/31 08:58:43;;;;;;;4.47;3.22;;;17.00;99.90;;;;;;5057119;28;20569;-73
2022/05/31 09:01:12;;;;;;;6.82;3.92;;;16.90;99.90;;;;;;5056773;28;20056;-72
2022/05/31 09:03:51;;;;;;;4.65;3.45;;;17.10;99.90;;;;;;5037494;28;20486;-72
2022/05/31 09:06:25;;;;;;;6.30;3.70;;;17.10;99.90;;;;;;5056027;28;20028;-72
2022/05/31 09:09:23;;;;;;;5.00;3.40;;;17.00;99.90;;;;;;5056640;28;20029;-72
2022/05/31 09:11:55;;;;;;;5.20;3.25;;;16.90;99.90;;;;;;5052753;28;20068;-71
2022/05/31 09:14:41;;;;;;;4.38;3.15;;;16.90;99.90;;;;;;5055644;28;21401;-72
2022/05/31 09:17:21;;;;;;;3.35;2.60;;;16.90;99.90;;;;;;5038408;28;20040;-72
2022/05/31 09:20:00;;;;;;;5.25;3.20;;;17.00;99.90;;;;;;5054761;28;20049;-72
2022/05/31 09:22:25;;;;;;;6.07;3.17;;;17.30;99.90;;;;;;5055057;28;20021;-72
2022/05/31 09:24:51;;;;;;;6.85;3.83;;;17.40;99.90;;;;;;5056118;28;20025;-73
2022/05/31 09:27:32;;;;;;;5.70;2.97;;;17.50;99.90;;;;;;5054982;28;20081;-71
2022/05/31 09:30:08;;;;;;;5.97;3.00;;;17.50;99.90;;;;;;5053356;28;20374;-71
2022/05/31 09:32:57;;;;;;;3.17;2.67;;;17.70;99.90;;;;;;5052239;28;20029;-71
2022/05/31 09:35:52;;;;;;;2.45;2.25;;;17.90;99.90;;;;;;5054427;28;20020;-72
2022/05/31 09:38:54;;;;;;;6.88;3.53;;;18.10;99.90;;;;;;5036709;28;20036;-72
2022/05/31 09:41:32;;;;;;;4.32;2.58;;;18.10;99.90;;;;;;5054513;28;20032;-71
2022/05/31 09:44:17;;;;;;;3.85;1.52;;;18.10;99.90;;;;;;5054421;28;20029;-72
2022/05/31 09:46:58;;;;;;;4.25;2.17;;;18.50;99.90;;;;;;5055224;28;20028;-72
2022/05/31 09:49:39;;;;;;;6.57;2.42;;;19.00;99.90;;;;;;5056294;28;20021;-72
2022/05/31 09:52:11;;;;;;;4.78;2.38;;;19.20;99.90;;;;;;5054482;28;20071;-74
2022/05/31 09:57:54;;;;;;;3.22;2.55;;;18.80;99.90;;;;;;5054189;28;20040;-73
2022/05/31 10:00:21;;;;;;;5.20;2.60;;;18.50;99.90;;;;;;5036514;28;20032;-73
2022/05/31 10:03:07;;;;;;;4.07;2.40;;;18.20;99.90;;;;;;5054676;28;20095;-72
2022/05/31 10:05:34;;;;;;;4.22;1.90;;;18.00;99.90;;;;;;5054983;28;20126;-72
2022/05/31 10:08:00;;;;;;;5.20;2.42;;;18.00;99.90;;;;;;5046260;28;20021;-72
2022/05/31 10:10:28;;;;;;;5.10;2.95;;;18.20;99.90;;;;;;5036203;28;20111;-72
2022/05/31 10:12:59;;;;;;;4.53;2.55;;;18.30;99.90;;;;;;5052879;28;20089;-72
2022/05/31 10:15:45;;;;;;;3.42;2.00;;;18.30;99.90;;;;;;5069055;28;20021;-71
2022/05/31 10:18:25;;;;;;;4.35;1.77;;;18.40;99.90;;;;;;5043118;28;20059;-70
2022/05/31 10:20:55;;;;;;;4.22;1.90;;;18.60;99.90;;;;;;5054544;28;20028;-72
2022/05/31 10:23:24;;;;;;;4.57;2.10;;;18.80;99.90;;;;;;5054465;28;20120;-71
2022/05/31 10:25:56;;;;;;;2.15;1.52;;;19.00;99.90;;;;;;5048346;28;20056;-72
2022/05/31 10:28:41;;;;;;;2.20;1.80;;;19.20;99.90;;;;;;5054599;28;20056;-71
2022/05/31 10:31:37;;;;;;;3.95;1.80;;;19.20;99.90;;;;;;5041645;28;20029;-71
2022/05/31 10:34:22;;;;;;;5.32;1.75;;;19.20;99.90;;;;;;5033336;28;20171;-71
2022/05/31 10:36:53;;;;;;;2.35;1.88;;;19.20;99.90;;;;;;5041494;28;20079;-71
2022/05/31 10:39:36;;;;;;;3.63;2.03;;;19.20;99.90;;;;;;5059091;28;20040;-71
2022/05/31 10:42:07;;;;;;;5.88;2.45;;;19.10;99.90;;;;;;5058773;28;20029;-70
2022/05/31 10:44:36;;;;;;;5.50;1.50;;;19.10;99.90;;;;;;5039776;28;20065;-71
2022/05/31 10:47:09;;;;;;;3.45;1.77;;;19.00;99.90;;;;;;5055059;28;20025;-71
2022/05/31 10:49:36;;;;;;;2.60;1.83;;;18.90;99.90;;;;;;5056666;28;20028;-71
2022/05/31 10:52:30;;;;;;;2.90;1.40;;;18.80;99.90;;;;;;5057590;28;20021;-71
2022/05/31 10:55:11;;;;;;;3.72;1.50;;;18.80;99.50;;;;;;5031511;28;20026;-71
2022/05/31 10:58:29;;;;;;;3.13;1.50;;;18.80;97.70;;;;;;5046691;28;20040;-79
2022/05/31 11:01:28;;;;;;;1.65;0.90;;;18.80;98.80;;;;;;4971153;28;20033;-82
2022/05/31 11:04:05;;;;;;;3.10;1.50;;;19.00;99.00;;;;;;4951368;28;20187;-81
2022/05/31 11:06:42;;;;;;;3.97;1.85;;;19.10;98.40;;;;;;5044322;28;20029;-81
2022/05/31 11:12:42;;;;;;;2.53;1.85;;;18.90;98.10;;;;;;5065502;28;20385;-81
2022/05/31 11:15:35;;;;;;;3.00;1.55;;;18.80;98.40;;;;;;5052288;28;20088;-80
2022/05/31 11:18:02;;;;;;;4.63;1.45;;;18.80;97.80;;;;;;5067396;28;20029;-79
2022/05/31 11:20:41;;;;;;;4.57;1.45;;;18.60;99.60;;;;;;5054025;28;20067;-80
2022/05/31 11:23:27;;;;;;;2.90;1.52;;;18.50;99.40;;;;;;5073266;28;20013;-81
2022/05/31 11:26:28;;;;;;;2.53;2.00;;;18.50;99.20;;;;;;5042756;28;20070;-71
2022/05/31 11:29:21;;;;;;;5.43;2.30;;;18.60;98.30;;;;;;5052989;28;20031;-72
2022/05/31 11:32:25;;;;;;;2.70;1.60;;;18.60;98.10;;;;;;5060690;28;20434;-72
2022/05/31 11:35:02;;;;;;;2.33;1.75;;;18.60;99.20;;;;;;5059998;28;20042;-71
2022/05/31 11:37:42;;;;;;;3.58;1.65;;;18.60;98.80;;;;;;5055628;28;20020;-71
2022/05/31 11:40:14;;;;;;;4.18;1.40;;;18.60;97.80;;;;;;5058657;28;20031;-72
2022/05/31 11:43:01;;;;;;;4.18;1.50;;;18.50;98.10;;;;;;5059951;28;20024;-72
2022/05/31 11:45:43;;;;;;;4.13;1.17;;;18.40;98.10;;;;;;5063117;28;20029;-72
2022/05/31 11:48:30;;;;;;;3.45;2.25;;;18.40;98.00;;;;;;5060461;28;20059;-72
2022/05/31 11:51:33;;;;;;;2.53;1.48;;;18.30;98.90;;;;;;5065464;28;20048;-72
2022/05/31 11:54:11;;;;;;;5.30;1.40;;;18.20;99.50;;;;;;5067504;28;20047;-71
2022/05/31 11:56:47;;;;;;;6.25;1.83;;;18.00;99.90;;;;;;5068196;28;20017;-72
2022/05/31 11:59:24;;;;;;;2.33;1.58;;;18.00;99.70;;;;;;5071126;28;20021;-73
2022/05/31 12:02:01;;;;;;;3.60;2.00;;;17.90;99.30;;;;;;5065948;28;20111;-73
2022/05/31 12:04:39;;;;;;;1.60;1.50;;;17.90;99.70;;;;;;5058239;28;20067;-72
2022/05/31 12:07:20;;;;;;;2.42;1.42;;;17.90;99.20;;;;;;5038696;28;20055;-72
2022/05/31 12:10:01;;;;;;;6.03;1.80;;;18.00;99.70;;;;;;5061374;28;20025;-73
2022/05/31 12:12:31;;;;;;;;;;;18.20;98.90;;;;;;5068616;28;20024;-72
2022/05/31 12:15:10;;;;;;;2.42;1.30;;;18.20;99.20;;;;;;5068678;28;19912;-72
2022/05/31 12:18:03;;;;;;;3.80;1.60;;;18.30;97.50;;;;;;5052505;28;20048;-71
2022/05/31 12:20:57;;;;;;;3.72;1.30;;;18.40;97.70;;;;;;5056056;28;20025;-73
2022/05/31 12:23:37;;;;;;;3.17;1.42;;;18.40;98.00;;;;;;5049850;28;20028;-72
2022/05/31 12:26:05;;;;;;;2.78;1.58;;;18.40;98.10;;;;;;5056532;28;20110;-72
2022/05/31 12:28:44;;;;;;;4.20;1.50;;;18.30;98.20;;;;;;5056187;28;20063;-72
2022/05/31 12:31:28;;;;;;;3.47;1.65;;;18.20;97.50;;;;;;5056514;28;20032;-72
2022/05/31 12:34:12;;;;;;;6.32;1.50;;;18.10;97.50;;;;;;5055935;28;20051;-71
2022/05/31 12:37:08;;;;;;;4.40;1.67;;;17.90;97.40;;;;;;5053469;28;20080;-71
2022/05/31 12:39:36;;;;;;;4.35;2.00;;;17.80;97.40;;;;;;5046706;28;20041;-72
2022/05/31 12:42:14;;;;;;;3.65;1.80;;;17.70;97.50;;;;;;5040770;28;20017;-73
2022/05/31 12:44:44;;;;;;;5.32;2.00;;;17.70;98.30;;;;;;5054468;28;20037;-72
2022/05/31 12:47:33;;;;;;;4.17;1.90;;;17.60;98.70;;;;;;5054756;28;20482;-72
2022/05/31 12:50:05;;;;;;;3.53;1.40;;;17.60;98.90;;;;;;5044386;28;20033;-72
2022/05/31 12:55:24;;;;;;;3.50;1.30;;;17.60;98.90;;;;;;5009411;28;20041;-72
2022/05/31 12:58:35;;;;;;;4.13;1.23;;;17.60;99.50;;;;;;5054174;28;20555;-72
2022/05/31 13:01:27;;;;;;;3.67;1.70;;;17.60;99.90;;;;;;5055710;28;20029;-72
2022/05/31 13:03:56;;;;;;;2.35;1.30;;;17.60;99.90;;;;;;5053658;28;20035;-72
2022/05/31 13:06:41;;;;;;;2.67;1.50;;;17.60;99.90;;;;;;5056198;28;20393;-73
2022/05/31 13:09:23;;;;;;;2.05;1.50;;;17.60;99.90;;;;;;5056415;28;20055;-73
2022/05/31 13:20:46;;;;;;;5.50;1.73;;;17.60;99.40;;;;;;5053923;28;20035;-72
2022/05/31 13:23:14;;;;;;;4.10;1.23;;;17.60;99.90;;;;;;5056765;28;20025;-73
2022/05/31 13:25:56;;;;;;;4.43;1.92;;;17.60;99.90;;;;;;5055720;28;20463;-72
2022/05/31 13:28:57;;;;;;;2.88;1.52;;;17.70;99.90;;;;;;5037524;28;20399;-72
2022/05/31 13:31:25;;;;;;;5.43;1.60;;;17.70;99.90;;;;;;5044237;28;20475;-73
2022/05/31 13:33:59;;;;;;;2.88;1.30;;;17.90;99.90;;;;;;5050904;28;20034;-73
2022/05/31 13:36:28;;;;;;;3.30;1.05;;;17.90;99.90;;;;;;5047316;28;20470;-73
2022/05/31 13:39:06;;;;;;;2.15;1.40;;;18.00;99.90;;;;;;5056701;28;20378;-73
2022/05/31 13:41:37;;;;;;;2.30;1.20;;;18.10;99.90;;;;;;5055841;28;20025;-72
2022/05/31 13:44:03;;;;;;;;;;;18.10;99.90;;;;;;5055940;28;20025;-74
2022/05/31 13:46:45;;;;;;;2.53;1.20;;;18.10;99.90;;;;;;5055469;28;19939;-73
2022/05/31 13:49:14;;;;;;;3.50;1.40;;;18.10;99.70;;;;;;5048835;28;20032;-72